createdAt,value
2022-10-21T00:01:36.612Z,8.60
2022-10-21T00:07:36.594Z,8.70
2022-10-21T00:13:36.608Z,9.00
2022-10-21T00:19:36.590Z,8.60
2022-10-21T00:25:36.606Z,9.70
2022-10-21T00:31:36.602Z,9.20
2022-10-21T00:37:36.774Z,9.00
2022-10-21T00:43:36.635Z,9.60
2022-10-21T00:49:36.588Z,10.10
2022-10-21T00:55:36.603Z,10.60
2022-10-21T01:01:36.676Z,9.80
2022-10-21T01:07:40.322Z,10.40
2022-10-21T01:13:36.676Z,10.20
2022-10-21T01:19:36.627Z,9.80
2022-10-21T01:25:36.645Z,10.80
2022-10-21T01:31:36.665Z,9.80
2022-10-21T01:37:37.179Z,9.50
2022-10-21T01:43:36.670Z,10.90
2022-10-21T01:49:36.644Z,10.80
2022-10-21T01:55:36.663Z,10.40
2022-10-21T02:01:36.672Z,10.20
2022-10-21T02:07:36.694Z,9.60
2022-10-21T02:13:36.711Z,10.90
2022-10-21T02:19:36.691Z,8.70
2022-10-21T02:25:36.715Z,10.90
2022-10-21T02:31:36.705Z,13.50
2022-10-21T02:37:36.737Z,12.30
2022-10-21T02:43:36.757Z,12.90
2022-10-21T02:49:36.734Z,11.70
2022-10-21T02:55:36.730Z,11.60
2022-10-21T03:01:37.025Z,10.00
2022-10-21T03:25:36.757Z,10.60
2022-10-21T03:31:36.770Z,9.80
2022-10-21T03:37:36.768Z,10.00
2022-10-21T03:43:36.779Z,10.50
2022-10-21T03:49:36.791Z,10.80
2022-10-21T03:55:36.787Z,10.80
2022-10-21T04:01:36.808Z,10.40
2022-10-21T04:07:36.803Z,9.10
2022-10-21T04:13:36.841Z,9.70
2022-10-21T04:19:36.826Z,11.10
2022-10-21T04:25:36.824Z,9.80
2022-10-21T04:31:36.805Z,9.80
2022-10-21T04:37:36.834Z,11.60
2022-10-21T04:43:36.857Z,9.70
2022-10-21T04:49:36.833Z,11.60
2022-10-21T04:55:36.838Z,9.20
2022-10-21T05:01:36.842Z,11.60
2022-10-21T05:07:36.853Z,10.70
2022-10-21T05:13:36.838Z,10.50
2022-10-21T05:19:36.855Z,10.30
2022-10-21T05:25:36.865Z,12.00
2022-10-21T05:31:36.828Z,11.80
2022-10-21T05:37:36.905Z,11.60
2022-10-21T05:43:36.883Z,10.70
2022-10-21T05:49:36.889Z,15.70
2022-10-21T05:55:36.884Z,18.60
2022-10-21T06:01:36.996Z,15.80
2022-10-21T06:07:37.085Z,13.40
2022-10-21T06:13:36.924Z,12.60
2022-10-21T06:19:36.908Z,12.30
2022-10-21T06:25:36.910Z,11.20
2022-10-21T06:31:36.908Z,12.10
2022-10-21T06:37:37.423Z,11.00
2022-10-21T06:43:36.931Z,12.00
2022-10-21T06:49:36.937Z,11.40
2022-10-21T06:55:36.936Z,9.90
2022-10-21T07:01:55.293Z,10.00
2022-10-21T07:07:37.291Z,10.90
2022-10-21T07:13:37.009Z,9.40
2022-10-21T07:19:36.963Z,9.90
2022-10-21T07:25:36.978Z,10.20
2022-10-21T07:31:36.975Z,9.70
2022-10-21T07:37:37.389Z,9.50
2022-10-21T07:43:37.009Z,9.40
2022-10-21T07:49:36.994Z,10.60
2022-10-21T07:55:36.986Z,10.60
2022-10-21T08:01:37.099Z,10.80
2022-10-21T08:07:36.992Z,9.50
2022-10-21T08:13:37.006Z,9.10
2022-10-21T08:19:36.985Z,9.70
2022-10-21T08:25:37.022Z,9.30
2022-10-21T08:31:37.029Z,10.10
2022-10-21T08:43:37.042Z,10.50
2022-10-21T08:49:37.052Z,10.50
2022-10-21T08:55:37.038Z,10.60
2022-10-21T09:01:37.035Z,11.70
2022-10-21T09:07:37.242Z,10.40
2022-10-21T09:13:37.041Z,10.90
2022-10-21T09:19:37.065Z,10.40
2022-10-21T09:25:37.057Z,9.50
2022-10-21T09:31:37.057Z,10.10
2022-10-21T09:37:37.298Z,10.00
2022-10-21T09:43:37.130Z,10.20
2022-10-21T09:50:05.376Z,9.60
2022-10-21T09:55:37.098Z,9.40
2022-10-21T10:01:37.139Z,9.30
2022-10-21T10:07:37.102Z,8.90
2022-10-21T10:13:37.100Z,10.30
2022-10-21T10:19:37.170Z,7.80
2022-10-21T10:25:37.074Z,8.80
2022-10-21T10:31:37.111Z,7.70
2022-10-21T10:37:37.140Z,8.30
2022-10-21T10:43:37.172Z,9.20
2022-10-21T10:49:37.152Z,9.50
2022-10-21T10:55:37.154Z,10.10
2022-10-21T11:01:37.199Z,9.70
2022-10-21T11:07:37.613Z,8.90
2022-10-21T11:13:40.066Z,10.80
2022-10-21T11:19:37.136Z,10.50
2022-10-21T11:25:37.201Z,10.30
2022-10-21T11:31:43.935Z,10.10
2022-10-21T11:37:37.612Z,10.10
2022-10-21T11:43:37.221Z,9.70
2022-10-21T11:49:37.491Z,9.80
2022-10-21T11:55:37.213Z,10.80
2022-10-21T12:01:37.286Z,9.20
2022-10-21T12:07:37.216Z,11.10
2022-10-21T12:13:37.232Z,11.10
2022-10-21T12:19:37.256Z,10.50
2022-10-21T12:25:37.254Z,10.40
2022-10-21T12:31:37.244Z,9.80
2022-10-21T12:37:37.543Z,10.20
2022-10-21T12:43:37.252Z,10.80
2022-10-21T12:49:37.282Z,10.40
2022-10-21T12:55:37.283Z,10.50
2022-10-21T13:01:37.291Z,10.20
2022-10-21T13:07:37.288Z,10.90
2022-10-21T13:13:37.268Z,10.50
2022-10-21T13:19:37.278Z,11.50
2022-10-21T13:25:37.266Z,10.80
2022-10-21T13:31:37.298Z,11.40
2022-10-21T13:37:37.588Z,11.10
2022-10-21T13:43:37.322Z,10.50
2022-10-21T13:49:37.305Z,9.60
2022-10-21T13:55:37.323Z,10.40
2022-10-21T14:01:37.390Z,10.50
2022-10-21T14:07:37.720Z,9.90
2022-10-21T14:13:37.353Z,10.30
2022-10-21T14:19:37.382Z,10.90
2022-10-21T14:25:37.365Z,11.60
2022-10-21T14:31:37.372Z,11.20
2022-10-21T14:37:37.406Z,11.90
2022-10-21T14:43:37.370Z,11.50
2022-10-21T14:49:37.391Z,11.30
2022-10-21T14:55:37.378Z,11.50
2022-10-21T15:01:37.387Z,12.20
2022-10-21T15:07:37.418Z,13.70
2022-10-21T15:13:37.400Z,11.60
2022-10-21T15:19:37.425Z,13.30
2022-10-21T15:31:37.429Z,13.50
2022-10-21T15:37:37.833Z,14.10
2022-10-21T15:43:37.486Z,12.80
2022-10-21T15:49:37.428Z,13.30
2022-10-21T15:55:37.445Z,13.00
2022-10-21T16:01:37.485Z,14.10
2022-10-21T16:07:37.421Z,12.60
2022-10-21T16:13:37.479Z,13.00
2022-10-21T16:19:37.462Z,13.90
2022-10-21T16:25:37.467Z,13.90
2022-10-21T16:31:37.485Z,14.80
2022-10-21T16:37:37.488Z,15.50
2022-10-21T16:43:37.482Z,16.20
2022-10-21T16:49:37.479Z,15.50
2022-10-21T16:55:37.497Z,15.00
2022-10-21T17:01:37.487Z,15.00
2022-10-21T17:07:38.005Z,16.20
2022-10-21T17:13:37.571Z,17.20
2022-10-21T17:19:37.537Z,18.40
2022-10-21T17:25:37.580Z,15.70
2022-10-21T17:31:37.552Z,18.30
2022-10-21T17:37:37.843Z,17.60
2022-10-21T17:43:37.532Z,18.30
2022-10-21T17:49:37.514Z,17.20
2022-10-21T17:55:37.542Z,17.50
2022-10-21T18:01:37.573Z,19.60
2022-10-21T18:07:37.868Z,20.40
2022-10-21T18:13:37.572Z,16.70
2022-10-21T18:19:37.578Z,18.20
2022-10-21T18:25:37.597Z,19.00
2022-10-21T18:31:37.590Z,17.80
2022-10-21T18:37:38.045Z,17.50
2022-10-21T18:43:37.604Z,18.50
2022-10-21T18:49:37.638Z,18.60
2022-10-21T18:55:37.618Z,17.30
2022-10-21T19:01:37.636Z,18.10
2022-10-21T19:25:37.642Z,19.50
2022-10-21T19:31:38.572Z,17.70
2022-10-21T19:37:37.662Z,17.90
2022-10-21T19:43:37.651Z,17.80
2022-10-21T19:49:37.638Z,18.80
2022-10-21T19:55:37.629Z,16.30
2022-10-21T20:01:37.733Z,18.00
2022-10-21T20:07:37.934Z,18.90
2022-10-21T20:13:37.659Z,19.30
2022-10-21T20:19:37.668Z,21.90
2022-10-21T20:25:37.667Z,18.70
2022-10-21T20:31:37.684Z,19.80
2022-10-21T20:37:38.187Z,18.60
2022-10-21T20:43:37.708Z,21.00
2022-10-21T20:49:37.697Z,19.70
2022-10-21T20:55:37.696Z,23.30
2022-10-21T21:01:41.601Z,20.50
2022-10-21T21:07:38.143Z,20.30
2022-10-21T21:13:41.986Z,18.80
2022-10-21T21:19:37.732Z,19.70
2022-10-21T21:25:37.695Z,20.80
2022-10-21T21:31:37.729Z,21.90
2022-10-21T21:37:37.746Z,22.90
2022-10-21T21:43:37.761Z,25.20
2022-10-21T21:49:37.745Z,24.60
2022-10-21T21:55:37.737Z,22.50
2022-10-21T22:01:37.918Z,22.20
2022-10-21T22:07:37.905Z,21.10
2022-10-21T22:13:37.747Z,21.00
2022-10-21T22:19:37.770Z,22.10
2022-10-21T22:25:37.752Z,22.30
2022-10-21T22:31:37.786Z,21.60
2022-10-21T22:37:38.138Z,22.80
2022-10-21T22:43:37.805Z,21.10
2022-10-21T22:49:37.807Z,22.20
2022-10-21T22:55:37.789Z,22.70
2022-10-21T23:01:37.815Z,22.20
2022-10-21T23:07:37.829Z,22.30
2022-10-21T23:13:37.996Z,23.50
2022-10-21T23:19:37.841Z,22.40
2022-10-21T23:25:37.877Z,22.90
2022-10-21T23:31:37.840Z,22.80
2022-10-21T23:37:38.099Z,23.70
2022-10-21T23:43:37.840Z,24.10
2022-10-21T23:49:37.861Z,22.20
2022-10-21T23:55:37.873Z,22.50
